Time;durP1;ratioP1;P1;durP2;ratioP2;P2;SDS_P1;SDS_P2;PMS_P1;PMS_P2;Temp;Humidity;BMP_temperature;BMP_pressure;BME280_temperature;BME280_humidity;BME280_pressure;Samples;Min_cycle;Max_cycle;Signal;HPM_P1;HPM_P2
2021/12/15 00:01:52;;;;;;;11.20;7.20;;;;;;;3.31;71.78;100189.37;1738701;81;21134;-40
2021/12/15 00:04:19;;;;;;;9.48;5.37;;;;;;;3.32;71.71;100181.59;1747419;80;20984;-40
2021/12/15 00:06:46;;;;;;;10.58;6.50;;;;;;;3.33;71.55;100183.99;1745089;81;21094;-40
2021/12/15 00:09:14;;;;;;;12.90;5.87;;;;;;;3.36;71.64;100184.73;1751336;81;21005;-40
2021/12/15 00:11:41;;;;;;;7.62;6.00;;;;;;;3.33;71.51;100185.87;1734707;81;21001;-40
2021/12/15 00:14:16;;;;;;;6.55;5.15;;;;;;;3.30;71.58;100177.05;1727133;81;22360;-40
2021/12/15 00:16:43;;;;;;;8.48;5.30;;;;;;;3.27;71.55;100177.11;1733611;81;21033;-40
2021/12/15 00:19:10;;;;;;;5.08;4.08;;;;;;;3.21;71.45;100173.45;1743412;81;21119;-40
2021/12/15 00:21:37;;;;;;;5.25;4.12;;;;;;;3.20;71.45;100169.16;1726104;81;21053;-40
2021/12/15 00:24:06;;;;;;;4.87;3.80;;;;;;;3.21;71.38;100165.41;1726375;81;21012;-40
2021/12/15 00:26:33;;;;;;;6.80;4.87;;;;;;;3.24;71.32;100168.86;1728212;82;21803;-39
2021/12/15 00:29:02;;;;;;;5.97;4.40;;;;;;;2.90;71.49;100120.34;1745024;81;21437;-40
2021/12/15 00:31:32;;;;;;;5.92;4.75;;;;;;;2.82;71.48;100111.59;1715076;82;21032;-39
2021/12/15 00:34:00;;;;;;;8.58;5.62;;;;;;;3.15;71.78;100166.59;1719194;82;21547;-40
2021/12/15 00:36:27;;;;;;;6.62;5.65;;;;;;;3.15;71.76;100166.59;1738312;82;21116;-40
2021/12/15 00:38:55;;;;;;;6.83;5.25;;;;;;;3.16;71.81;100172.17;1722315;82;21203;-40
2021/12/15 00:41:22;;;;;;;7.30;5.12;;;;;;;3.19;71.77;100175.63;1722975;82;21013;-40
2021/12/15 00:43:49;;;;;;;6.92;5.50;;;;;;;3.22;71.77;100174.50;1713676;83;21074;-40
2021/12/15 00:46:16;;;;;;;6.42;5.20;;;;;;;3.19;71.87;100184.47;1717107;82;21091;-40
2021/12/15 00:48:45;;;;;;;6.67;4.87;;;;;;;3.19;71.97;100185.02;1735157;82;21040;-40
2021/12/15 00:51:12;;;;;;;5.75;4.78;;;;;;;3.16;71.91;100173.52;1729087;82;21235;-40
2021/12/15 00:53:40;;;;;;;6.28;5.00;;;;;;;3.14;71.97;100175.70;1712074;82;21021;-40
2021/12/15 00:56:09;;;;;;;5.85;4.70;;;;;;;3.11;71.75;100166.89;1712599;82;21096;-40
2021/12/15 00:58:36;;;;;;;6.05;4.85;;;;;;;3.02;71.66;100169.44;1715476;82;21531;-40
2021/12/15 01:01:04;;;;;;;6.50;4.85;;;;;;;2.95;71.93;100172.46;1725694;82;21551;-40
2021/12/15 01:03:31;;;;;;;6.87;5.20;;;;;;;2.88;72.18;100177.39;1730405;82;21108;-40
2021/12/15 01:06:05;;;;;;;7.75;5.97;;;;;;;2.81;72.44;100170.24;1710798;82;21017;-40
2021/12/15 01:08:32;;;;;;;8.48;6.22;;;;;;;2.81;72.64;100167.56;1734878;82;21020;-40
2021/12/15 01:11:19;;;;;;;6.40;5.12;;;;;;;2.81;72.64;100170.24;1733897;82;20985;-40
2021/12/15 01:22:05;;;;;;;8.25;5.67;;;;;;;2.81;72.43;100160.88;1669709;85;21081;-40
2021/12/15 01:24:32;;;;;;;7.72;5.80;;;;;;;2.69;72.53;100161.85;1739930;80;20969;-40
2021/12/15 01:26:59;;;;;;;8.35;5.78;;;;;;;2.64;72.75;100160.58;1775841;80;21036;-40
2021/12/15 01:29:26;;;;;;;8.88;5.92;;;;;;;2.66;72.85;100155.74;1793631;79;21028;-39
2021/12/15 01:31:54;;;;;;;9.00;6.47;;;;;;;2.69;72.75;100165.86;1807762;79;21004;-40
2021/12/15 01:34:21;;;;;;;8.20;6.35;;;;;;;2.65;73.05;100159.50;1807836;79;20985;-39
2021/12/15 01:36:48;;;;;;;10.43;7.37;;;;;;;2.60;73.25;100148.31;1807984;79;21004;-39
2021/12/15 01:39:15;;;;;;;9.53;6.58;;;;;;;2.59;73.27;100149.93;1801551;79;21025;-40
2021/12/15 01:41:43;;;;;;;10.25;6.72;;;;;;;2.54;73.19;100141.96;1807860;79;21933;-40
2021/12/15 01:46:56;;;;;;;8.33;6.17;;;;;;;2.57;73.16;100144.85;1806898;79;21074;-39
2021/12/15 01:49:51;;;;;;;9.55;6.50;;;;;;;2.53;73.20;100145.72;1808328;79;21068;-40
2021/12/15 01:52:25;;;;;;;10.65;7.78;;;;;;;2.43;73.25;100138.61;1806514;79;21024;-40
2021/12/15 01:54:56;;;;;;;15.88;7.92;;;;;;;2.34;73.42;100143.55;1806928;79;21704;-40
2021/12/15 01:57:27;;;;;;;13.83;8.25;;;;;;;2.30;73.65;100140.65;1808088;79;21052;-39
2021/12/15 01:59:55;;;;;;;11.12;7.70;;;;;;;2.35;73.77;100143.27;1806846;79;20914;-40
2021/12/15 02:02:22;;;;;;;12.05;8.33;;;;;;;2.40;73.76;100138.39;1805576;79;21020;-40
2021/12/15 02:04:50;;;;;;;11.88;8.63;;;;;;;2.40;73.79;100138.39;1807156;79;21075;-39
2021/12/15 02:07:21;;;;;;;14.10;9.33;;;;;;;2.39;73.91;100132.24;1807996;79;21017;-39
2021/12/15 02:12:23;;;;;;;14.60;8.88;;;;;;;2.40;73.68;100130.37;1807718;79;21597;-40
2021/12/15 02:14:51;;;;;;;14.28;9.55;;;;;;;2.41;73.76;100131.42;1808151;79;21032;-40
2021/12/15 02:17:19;;;;;;;13.30;8.95;;;;;;;2.47;73.80;100125.48;1801926;79;21076;-40
2021/12/15 02:19:46;;;;;;;14.95;9.98;;;;;;;2.50;73.87;100116.86;1806496;79;21078;-40
2021/12/15 02:22:14;;;;;;;13.75;9.33;;;;;;;2.53;73.79;100114.94;1794516;79;21052;-40
2021/12/15 02:24:42;;;;;;;13.93;9.30;;;;;;;2.55;73.70;100103.41;1806500;79;20933;-40
2021/12/15 02:27:12;;;;;;;11.35;7.62;;;;;;;2.56;73.57;100110.37;1800768;79;21399;-40
2021/12/15 02:29:42;;;;;;;9.00;6.20;;;;;;;2.53;73.25;100107.70;1776286;80;21503;-40
2021/12/15 02:32:26;;;;;;;11.12;7.65;;;;;;;2.55;72.95;100110.11;1785075;79;21965;-40
2021/12/15 02:37:05;;;;;;;10.88;8.23;;;;;;;2.49;72.93;100109.91;1775471;80;21521;-40
2021/12/15 02:37:26;;;;;;;10.50;7.83;;;;;;;2.43;73.25;100115.86;1789381;79;21453;-39
2021/12/15 02:40:00;;;;;;;11.53;7.87;;;;;;;2.37;73.14;100122.92;1798983;79;21072;-39
2021/12/15 02:42:31;;;;;;;12.18;8.03;;;;;;;2.33;73.40;100128.02;1781435;79;20968;-40
2021/12/15 02:44:58;;;;;;;11.08;8.25;;;;;;;2.36;73.32;100126.14;1776129;80;21084;-39
2021/12/15 02:47:28;;;;;;;12.65;8.55;;;;;;;2.41;73.18;100119.92;1782591;79;20991;-39
2021/12/15 02:49:56;;;;;;;;;;;;;;;2.45;73.20;100111.03;1779125;80;21009;-40
2021/12/15 02:52:23;;;;;;;13.08;8.60;;;;;;;2.43;73.27;100123.09;1794360;79;20486;-39
2021/12/15 02:54:50;;;;;;;13.70;9.25;;;;;;;2.33;73.66;100132.04;1792810;79;21029;-39
2021/12/15 02:57:17;;;;;;;11.57;8.48;;;;;;;2.37;73.65;100134.97;1796781;79;21637;-39
2021/12/15 03:05:22;;;;;;;10.50;8.38;;;;;;;2.54;73.40;100139.28;1807752;79;20961;-39
2021/12/15 03:08:03;;;;;;;12.53;8.70;;;;;;;2.59;73.48;100140.56;1786463;79;21069;-39
2021/12/15 03:15:55;;;;;;;13.10;8.40;;;;;;;2.68;73.20;100165.60;1787836;79;21009;-39
2021/12/15 03:18:26;;;;;;;11.88;8.58;;;;;;;2.68;73.14;100166.94;1776805;79;21374;-40
2021/12/15 03:21:09;;;;;;;9.90;6.42;;;;;;;2.75;72.92;100166.06;1776672;79;21095;-40
2021/12/15 03:23:54;;;;;;;13.00;8.68;;;;;;;2.78;72.78;100164.14;1788447;79;21541;-40
2021/12/15 03:26:25;;;;;;;13.98;9.15;;;;;;;2.76;72.74;100168.97;1789912;80;21001;-39
2021/12/15 03:39:26;;;;;;;10.75;7.45;;;;;;;2.55;72.64;100166.31;1726462;82;20937;-40
2021/12/15 03:41:59;;;;;;;9.75;6.78;;;;;;;2.47;72.80;100168.30;1723503;82;21532;-40
2021/12/15 03:44:22;;;;;;;10.50;7.23;;;;;;;2.39;72.92;100184.42;1740448;82;21515;-40
2021/12/15 03:46:49;;;;;;;8.73;6.40;;;;;;;2.35;73.15;100178.59;1731519;82;21495;-40
2021/12/15 03:49:17;;;;;;;6.97;5.80;;;;;;;2.29;73.11;100175.70;1759639;81;21130;-40
2021/12/15 03:51:44;;;;;;;7.80;6.00;;;;;;;2.32;73.02;100181.30;1759516;81;20954;-39
2021/12/15 03:54:12;;;;;;;8.75;5.70;;;;;;;2.37;73.02;100183.13;1759542;81;20925;-40
2021/12/15 03:56:41;;;;;;;7.33;6.00;;;;;;;2.37;72.95;100184.47;1759594;81;21528;-40
2021/12/15 03:59:08;;;;;;;7.55;6.40;;;;;;;2.36;72.88;100186.88;1765734;80;21579;-40
2021/12/15 04:01:35;;;;;;;8.93;5.47;;;;;;;2.32;72.96;100188.53;1721156;83;21863;-40
2021/12/15 04:04:02;;;;;;;6.28;4.95;;;;;;;2.33;72.98;100183.41;1784053;80;20907;-40
2021/12/15 04:06:33;;;;;;;6.97;5.35;;;;;;;2.34;72.58;100187.16;1763200;80;21062;-40
2021/12/15 04:09:02;;;;;;;7.20;5.17;;;;;;;2.31;72.48;100180.25;1742825;82;21530;-40
2021/12/15 04:11:33;;;;;;;6.95;5.28;;;;;;;2.24;72.47;100186.46;1743368;82;21064;-40
2021/12/15 04:14:00;;;;;;;8.08;5.53;;;;;;;2.20;72.67;100190.25;1742679;81;21148;-39
2021/12/15 04:19:07;;;;;;;8.55;5.17;;;;;;;2.07;72.66;100185.58;1741354;82;20977;-40
2021/12/15 04:21:35;;;;;;;7.20;5.15;;;;;;;2.09;72.81;100191.42;1739531;82;20934;-39
2021/12/15 04:24:03;;;;;;;7.37;4.85;;;;;;;2.09;72.74;100192.23;1739165;82;21017;-40
2021/12/15 04:26:30;;;;;;;6.72;4.90;;;;;;;2.03;72.95;100186.66;1746681;81;21088;-40
2021/12/15 04:28:58;;;;;;;6.60;5.15;;;;;;;2.01;73.10;100185.37;1749279;81;21008;-40
2021/12/15 04:31:28;;;;;;;6.70;5.00;;;;;;;1.99;73.27;100187.52;1750331;81;21053;-40
2021/12/15 04:34:08;;;;;;;7.40;4.87;;;;;;;2.00;73.40;100185.91;1735060;81;21653;-39
2021/12/15 04:36:39;;;;;;;6.92;4.80;;;;;;;2.06;73.34;100194.14;1725437;81;21238;-40
2021/12/15 04:39:08;;;;;;;6.42;4.60;;;;;;;2.11;73.25;100199.44;1728677;82;21148;-40
2021/12/15 04:41:35;;;;;;;7.62;4.47;;;;;;;2.13;73.13;100198.60;1729429;81;21053;-39
2021/12/15 04:44:09;;;;;;;7.00;4.97;;;;;;;2.08;73.06;100204.00;1727568;81;21004;-39
2021/12/15 04:46:34;;;;;;;5.80;4.17;;;;;;;2.03;73.24;100201.38;1721516;81;21080;-39
2021/12/15 04:49:04;;;;;;;5.65;3.80;;;;;;;1.99;73.32;100203.55;1721851;83;21037;-40
2021/12/15 04:51:31;;;;;;;4.83;3.40;;;;;;;2.02;73.33;100203.81;1735231;81;21095;-40
2021/12/15 04:53:59;;;;;;;3.72;3.27;;;;;;;2.09;73.22;100204.27;1750123;81;21008;-39
2021/12/15 04:56:26;;;;;;;7.67;3.52;;;;;;;2.11;72.94;100203.99;1749059;81;21064;-40
2021/12/15 04:58:54;;;;;;;8.08;3.85;;;;;;;2.06;72.97;100204.04;1750802;81;20994;-40
2021/12/15 05:01:22;;;;;;;4.72;3.20;;;;;;;2.01;73.07;100203.55;1737498;81;21092;-40
2021/12/15 05:03:49;;;;;;;3.62;2.95;;;;;;;2.02;73.09;100207.83;1723618;81;21218;-40
2021/12/15 05:06:16;;;;;;;3.75;2.60;;;;;;;2.04;73.18;100205.65;1727121;81;21052;-40
2021/12/15 05:08:43;;;;;;;5.22;2.85;;;;;;;2.13;73.17;100211.97;1723508;81;20945;-39
2021/12/15 05:11:11;;;;;;;3.17;2.55;;;;;;;2.22;72.92;100215.39;1722574;81;20941;-40
2021/12/15 05:13:38;;;;;;;3.70;2.83;;;;;;;2.21;72.80;100211.12;1721827;81;21043;-40
2021/12/15 05:16:05;;;;;;;3.83;2.45;;;;;;;2.19;72.87;100213.53;1730280;81;21118;-40
2021/12/15 05:18:34;;;;;;;3.03;1.97;;;;;;;2.19;72.76;100209.52;1737256;81;20972;-40
2021/12/15 05:21:02;;;;;;;3.10;2.45;;;;;;;2.17;72.74;100211.69;1752376;81;21668;-39
2021/12/15 05:23:32;;;;;;;3.00;2.40;;;;;;;2.13;72.79;100206.63;1733213;81;21025;-40
2021/12/15 05:25:59;;;;;;;2.75;2.30;;;;;;;2.17;72.58;100216.24;1717727;81;21052;-40
2021/12/15 05:28:27;;;;;;;3.52;2.35;;;;;;;2.16;72.52;100211.43;1718117;82;21072;-40
2021/12/15 05:30:56;;;;;;;2.47;1.98;;;;;;;2.16;72.86;100219.45;1767897;80;20949;-40
2021/12/15 05:33:26;;;;;;;3.77;2.58;;;;;;;2.20;72.84;100225.03;1775455;80;20929;-40
2021/12/15 05:35:54;;;;;;;2.98;2.27;;;;;;;2.19;72.67;100228.23;1775701;80;20989;-40
2021/12/15 05:40:37;;;;;;;4.22;2.30;;;;;;;2.27;72.55;100225.50;1791167;79;22640;-39
2021/12/15 05:43:05;;;;;;;2.60;2.30;;;;;;;2.26;72.72;100225.78;1749864;80;21561;-39
2021/12/15 05:45:35;;;;;;;3.58;2.40;;;;;;;2.35;72.69;100230.23;1733426;81;21495;-39
2021/12/15 05:48:03;;;;;;;4.25;2.37;;;;;;;2.43;72.61;100227.46;1726834;81;20929;-40
2021/12/15 05:50:31;;;;;;;3.00;2.47;;;;;;;2.48;72.53;100231.42;1728412;81;21000;-39
2021/12/15 05:53:00;;;;;;;3.15;2.40;;;;;;;2.48;72.34;100231.42;1726708;81;20965;-39
2021/12/15 05:55:28;;;;;;;3.57;2.47;;;;;;;2.47;72.33;100231.19;1727149;81;21024;-39
2021/12/15 05:57:55;;;;;;;4.17;2.33;;;;;;;2.50;72.25;100235.95;1726441;83;21049;-39
2021/12/15 06:00:26;;;;;;;3.62;2.22;;;;;;;2.51;72.22;100241.58;1738347;81;21011;-39
2021/12/15 06:02:55;;;;;;;2.40;2.00;;;;;;;2.61;72.04;100246.25;1731450;81;21511;-39
2021/12/15 06:05:22;;;;;;;3.70;2.37;;;;;;;2.70;71.66;100241.09;1743299;81;20993;-39
2021/12/15 06:07:49;;;;;;;3.20;2.50;;;;;;;2.68;71.51;100243.24;1726648;81;21767;-39
2021/12/15 06:10:21;;;;;;;3.22;2.62;;;;;;;2.65;71.37;100247.84;1726770;81;21154;-39
2021/12/15 06:12:49;;;;;;;4.35;2.70;;;;;;;2.59;71.31;100247.09;1756491;81;20957;-40
2021/12/15 06:15:22;;;;;;;3.52;2.40;;;;;;;2.60;71.47;100252.71;1754298;81;21577;-39
2021/12/15 06:17:52;;;;;;;2.50;2.05;;;;;;;2.60;71.44;100254.59;1741671;81;21033;-39
2021/12/15 06:20:20;;;;;;;2.02;1.80;;;;;;;2.62;71.18;100264.45;1697225;82;21095;-39
2021/12/15 06:22:48;;;;;;;2.20;1.98;;;;;;;2.62;70.98;100269.27;1710996;83;21506;-39
2021/12/15 06:25:16;;;;;;;2.75;1.98;;;;;;;2.68;70.93;100266.53;1722624;83;21055;-39
2021/12/15 06:27:43;;;;;;;3.67;2.05;;;;;;;2.65;70.62;100267.12;1723049;83;21486;-39
2021/12/15 06:30:11;;;;;;;3.00;2.08;;;;;;;2.63;70.67;100266.05;1721937;83;20964;-39
2021/12/15 06:32:38;;;;;;;2.27;1.77;;;;;;;2.63;70.73;100273.55;1720165;81;21522;-39
2021/12/15 06:35:06;;;;;;;2.62;2.10;;;;;;;2.66;70.52;100268.72;1714373;83;21170;-39
2021/12/15 06:37:33;;;;;;;2.15;1.75;;;;;;;2.63;70.33;100270.87;1712310;83;20976;-39
2021/12/15 06:40:01;;;;;;;2.05;1.80;;;;;;;2.65;70.37;100271.93;1697159;82;20993;-39
2021/12/15 06:42:29;;;;;;;2.35;1.40;;;;;;;2.64;70.20;100273.01;1700624;82;21033;-39
2021/12/15 06:44:57;;;;;;;2.00;1.60;;;;;;;2.71;70.04;100280.14;1679826;84;21073;-39
2021/12/15 06:58:13;;;;;;;2.27;1.80;;;;;;;2.72;69.66;100287.64;1713313;83;21029;-39
2021/12/15 07:00:44;;;;;;;1.77;1.60;;;;;;;2.72;69.71;100290.31;1713217;83;21145;-39
2021/12/15 07:03:12;;;;;;;2.10;1.37;;;;;;;2.70;69.58;100293.30;1713194;82;21081;-39
2021/12/15 07:05:39;;;;;;;2.37;1.52;;;;;;;2.72;69.34;100293.79;1713633;83;21065;-40
2021/12/15 07:08:07;;;;;;;2.25;1.67;;;;;;;2.75;69.23;100294.58;1734000;82;21002;-39
2021/12/15 07:10:38;;;;;;;2.37;1.50;;;;;;;2.65;69.35;100294.69;1734331;80;21025;-39
2021/12/15 07:13:06;;;;;;;1.82;1.60;;;;;;;2.56;69.58;100297.73;1727289;82;21075;-39
2021/12/15 07:15:34;;;;;;;1.77;1.65;;;;;;;2.47;69.71;100299.43;1740928;82;21085;-40
2021/12/15 07:18:04;;;;;;;2.25;1.72;;;;;;;2.40;70.04;100295.73;1715362;81;21526;-39
2021/12/15 07:20:37;;;;;;;2.67;2.15;;;;;;;2.38;70.09;100297.89;1701101;84;21597;-40
2021/12/15 07:23:01;;;;;;;2.63;1.97;;;;;;;2.44;70.13;100295.97;1739270;82;21025;-39
2021/12/15 07:25:28;;;;;;;2.65;2.05;;;;;;;2.50;69.95;100305.55;1742756;82;21163;-39
2021/12/15 07:27:55;;;;;;;2.67;2.00;;;;;;;2.57;69.95;100300.64;1738497;82;21118;-40
2021/12/15 07:30:23;;;;;;;2.25;1.95;;;;;;;2.61;69.81;100304.38;1731750;82;20962;-39
2021/12/15 07:32:50;;;;;;;2.20;2.00;;;;;;;2.61;69.67;100315.08;1741770;82;21509;-39
2021/12/15 07:35:18;;;;;;;2.22;2.02;;;;;;;2.60;69.55;100317.49;1716620;82;21051;-40
2021/12/15 07:37:45;;;;;;;2.42;1.85;;;;;;;2.56;69.48;100319.14;1741274;82;21611;-39
2021/12/15 07:40:20;;;;;;;1.70;1.60;;;;;;;2.47;68.99;100324.29;1746055;82;21500;-40
2021/12/15 07:43:03;;;;;;;1.55;1.40;;;;;;;2.42;69.17;100315.53;1748126;81;21080;-39
2021/12/15 07:45:25;;;;;;;1.67;1.57;;;;;;;2.40;69.28;100325.17;1739868;81;21492;-40
2021/12/15 07:47:54;;;;;;;2.00;1.70;;;;;;;2.28;69.60;100310.55;1750376;82;21529;-39
2021/12/15 07:50:22;;;;;;;2.00;1.80;;;;;;;2.16;70.02;100319.77;1742449;82;21088;-40
2021/12/15 07:52:50;;;;;;;1.90;1.70;;;;;;;2.11;70.30;100326.48;1732489;82;21098;-39
2021/12/15 07:55:18;;;;;;;2.27;1.90;;;;;;;2.06;70.50;100329.20;1746260;81;21032;-40
2021/12/15 07:57:45;;;;;;;2.55;2.00;;;;;;;2.10;70.69;100331.58;1751163;81;20990;-39
2021/12/15 08:00:15;;;;;;;1.90;1.70;;;;;;;2.17;70.61;100333.41;1697316;83;21027;-39
2021/12/15 08:02:42;;;;;;;1.70;1.37;;;;;;;2.20;70.30;100322.67;1748574;81;21824;-39
2021/12/15 08:05:11;;;;;;;2.12;1.92;;;;;;;2.15;70.24;100331.54;1750504;82;21085;-39
2021/12/15 08:07:39;;;;;;;2.58;1.70;;;;;;;2.16;70.34;100340.36;1747694;81;20974;-39
2021/12/15 08:10:09;;;;;;;3.22;1.90;;;;;;;2.18;70.33;100338.19;1732724;82;21029;-40
2021/12/15 08:12:39;;;;;;;3.35;2.10;;;;;;;2.18;69.59;100334.98;1748324;82;21103;-39
2021/12/15 08:15:08;;;;;;;4.37;2.03;;;;;;;2.16;69.37;100333.67;1750824;82;21131;-39
2021/12/15 08:17:37;;;;;;;2.20;1.90;;;;;;;2.07;68.90;100336.16;1743889;81;21033;-39
2021/12/15 08:20:07;;;;;;;2.25;2.05;;;;;;;1.88;68.90;100339.77;1750030;81;20945;-39
2021/12/15 08:22:34;;;;;;;2.85;2.10;;;;;;;1.70;69.24;100341.20;1745757;81;21090;-39
2021/12/15 08:25:01;;;;;;;2.65;2.20;;;;;;;1.66;69.55;100345.52;1742415;82;20994;-39
2021/12/15 08:27:29;;;;;;;4.35;2.33;;;;;;;1.61;69.64;100341.53;1745293;82;21878;-39
2021/12/15 08:29:56;;;;;;;3.12;2.40;;;;;;;1.44;69.54;100327.73;1748517;82;21788;-39
2021/12/15 08:32:23;;;;;;;3.22;2.25;;;;;;;1.51;69.57;100346.92;1749827;82;21052;-39
2021/12/15 08:34:50;;;;;;;2.27;1.90;;;;;;;1.45;69.42;100347.52;1749641;82;21013;-39
2021/12/15 08:37:17;;;;;;;2.70;1.98;;;;;;;1.36;69.32;100343.79;1750085;82;21508;-39
2021/12/15 08:39:45;;;;;;;2.52;2.22;;;;;;;1.25;69.21;100344.39;1741369;81;21201;-40
2021/12/15 08:42:12;;;;;;;4.35;2.67;;;;;;;1.18;69.41;100338.53;1756089;81;21027;-39
2021/12/15 08:44:41;;;;;;;2.62;2.40;;;;;;;1.11;69.77;100339.38;1750325;81;20993;-40
2021/12/15 08:47:08;;;;;;;2.90;2.60;;;;;;;1.09;69.95;100341.52;1730499;81;20943;-39
2021/12/15 08:49:36;;;;;;;2.98;2.42;;;;;;;1.10;70.16;100336.44;1726222;81;21069;-39
2021/12/15 08:52:05;;;;;;;3.98;2.70;;;;;;;1.11;70.25;100338.05;1734144;81;21859;-39
2021/12/15 08:54:32;;;;;;;3.60;2.40;;;;;;;1.12;69.93;100338.28;1729657;81;21032;-39
2021/12/15 08:56:59;;;;;;;3.60;2.02;;;;;;;1.10;70.02;100335.11;1741417;81;21012;-39
2021/12/15 08:59:26;;;;;;;2.72;2.10;;;;;;;1.16;69.82;100336.66;1756138;81;20925;-39
2021/12/15 09:01:53;;;;;;;2.30;2.10;;;;;;;1.15;69.37;100330.28;1755705;81;21503;-39
2021/12/15 09:04:20;;;;;;;2.67;2.15;;;;;;;1.13;69.29;100326.53;1756083;81;21147;-39
2021/12/15 09:06:47;;;;;;;2.30;1.90;;;;;;;1.10;68.78;100321.75;1750260;81;20937;-39
2021/12/15 09:09:16;;;;;;;3.67;2.10;;;;;;;1.09;68.38;100328.69;1751712;81;21578;-39
2021/12/15 09:11:43;;;;;;;2.15;1.95;;;;;;;1.07;68.34;100324.95;1737865;81;20973;-39
2021/12/15 09:14:11;;;;;;;1.77;1.60;;;;;;;1.07;68.72;100324.95;1747924;81;21083;-39
2021/12/15 09:16:40;;;;;;;2.10;1.90;;;;;;;1.12;68.78;100324.93;1755045;81;21852;-39
2021/12/15 09:19:08;;;;;;;2.22;2.00;;;;;;;1.10;68.28;100327.09;1746064;81;21115;-39
2021/12/15 09:21:36;;;;;;;2.27;1.98;;;;;;;0.99;68.33;100318.84;1754971;81;21019;-39
2021/12/15 09:24:05;;;;;;;2.75;2.10;;;;;;;1.03;68.86;100326.57;1753639;81;20948;-39
2021/12/15 09:26:33;;;;;;;2.00;1.80;;;;;;;1.06;68.64;100327.38;1756216;81;21009;-39
2021/12/15 09:29:00;;;;;;;2.30;2.02;;;;;;;1.08;68.42;100329.22;1756036;81;21140;-39
2021/12/15 09:31:27;;;;;;;2.27;1.90;;;;;;;1.05;68.29;100328.98;1752630;81;20953;-39
2021/12/15 09:33:55;;;;;;;3.52;2.12;;;;;;;1.04;68.52;100326.84;1743672;81;21562;-39
2021/12/15 09:36:23;;;;;;;3.85;2.67;;;;;;;1.01;68.20;100325.27;1742980;81;20953;-39
2021/12/15 09:38:54;;;;;;;2.70;2.47;;;;;;;1.03;68.46;100326.57;1739520;81;21088;-39
2021/12/15 09:41:21;;;;;;;2.58;1.98;;;;;;;1.07;68.62;100327.62;1739693;81;21517;-39
2021/12/15 09:43:51;;;;;;;2.27;2.08;;;;;;;1.05;68.42;100323.64;1742724;82;20949;-39
2021/12/15 09:46:40;;;;;;;2.00;1.80;;;;;;;1.09;68.72;100327.36;1738194;81;20891;-39
2021/12/15 09:57:28;;;;;;;4.70;1.90;;;;;;;1.39;67.78;100309.06;1736745;82;21010;-39
2021/12/15 10:02:50;;;;;;;2.77;2.40;;;;;;;1.48;67.67;100306.07;1728730;82;21096;-39
2021/12/15 10:05:25;;;;;;;4.78;1.82;;;;;;;1.49;67.22;100296.98;1733151;82;20998;-39
2021/12/15 10:11:00;;;;;;;2.15;1.72;;;;;;;1.39;67.09;100309.06;1739513;82;21521;-39
2021/12/15 10:19:09;;;;;;;2.30;1.98;;;;;;;1.39;67.37;100299.17;1678419;85;21069;-39
2021/12/15 10:21:31;;;;;;;2.58;2.17;;;;;;;1.42;67.47;100290.60;1676197;85;21162;-39
2021/12/15 10:23:58;;;;;;;2.55;2.30;;;;;;;1.46;67.48;100289.50;1703501;83;21091;-39
2021/12/15 10:26:25;;;;;;;3.22;2.58;;;;;;;1.47;67.52;100284.42;1679432;84;21021;-39
2021/12/15 10:28:52;;;;;;;4.30;2.67;;;;;;;1.34;67.33;100289.86;1695542;84;21097;-39
2021/12/15 10:31:23;;;;;;;3.12;2.50;;;;;;;1.28;67.68;100286.94;1706571;83;21053;-39
2021/12/15 10:33:57;;;;;;;3.15;2.67;;;;;;;1.28;67.70;100285.07;1706185;82;21186;-39
2021/12/15 10:36:32;;;;;;;2.25;2.05;;;;;;;1.25;68.13;100288.84;1706957;83;22232;-39
2021/12/15 10:39:04;;;;;;;2.25;2.05;;;;;;;1.28;68.46;100279.73;1692133;84;20949;-39
2021/12/15 10:41:37;;;;;;;2.25;2.05;;;;;;;1.25;68.57;100282.96;1707622;83;21054;-39
2021/12/15 10:44:21;;;;;;;5.10;4.10;;;;;;;1.24;68.86;100279.22;1707661;83;21039;-39
2021/12/15 10:46:56;;;;;;;5.22;3.55;;;;;;;1.20;68.98;100275.51;1710335;83;21815;-39
2021/12/15 10:49:30;;;;;;;5.55;3.98;;;;;;;1.17;69.29;100279.52;1701852;83;20996;-39
2021/12/15 10:52:07;;;;;;;3.60;2.92;;;;;;;1.23;69.52;100278.95;1714948;82;21075;-39
2021/12/15 10:54:49;;;;;;;3.20;2.60;;;;;;;1.26;69.56;100279.19;1714807;83;21287;-39
2021/12/15 10:57:34;;;;;;;2.83;2.40;;;;;;;1.27;69.58;100275.45;1714818;83;21005;-39
2021/12/15 11:00:01;;;;;;;3.75;3.08;;;;;;;1.33;69.35;100279.44;1714780;83;21120;-40
2021/12/15 11:02:32;;;;;;;4.05;3.15;;;;;;;1.29;69.51;100278.66;1714762;83;21020;-40
2021/12/15 11:05:14;;;;;;;4.08;3.12;;;;;;;1.33;69.43;100278.09;1715200;83;21013;-40
2021/12/15 11:07:47;;;;;;;5.17;3.80;;;;;;;1.33;69.44;100276.77;1747785;82;21093;-40
2021/12/15 11:10:26;;;;;;;4.47;3.45;;;;;;;1.39;69.64;100268.45;1722505;82;21108;-40
2021/12/15 11:12:58;;;;;;;4.42;3.30;;;;;;;1.42;69.56;100269.23;1720987;83;21963;-40
2021/12/15 11:15:39;;;;;;;3.72;3.10;;;;;;;1.49;69.60;100267.06;1720732;82;21020;-40
2021/12/15 11:18:19;;;;;;;4.55;3.35;;;;;;;1.56;69.63;100272.88;1745042;81;21009;-40
2021/12/15 11:20:54;;;;;;;;;;;;;;;1.62;69.12;100268.30;1716726;83;20981;-40
2021/12/15 11:23:23;;;;;;;4.45;3.30;;;;;;;1.59;69.15;100275.02;1699420;84;20170;-40
2021/12/15 11:25:54;;;;;;;5.12;3.40;;;;;;;1.54;69.20;100280.39;1695805;83;21909;-40
2021/12/15 11:28:31;;;;;;;4.05;3.20;;;;;;;1.58;68.90;100276.62;1688823;83;21548;-40
2021/12/15 11:31:15;;;;;;;4.42;3.12;;;;;;;1.57;68.91;100281.69;1678664;84;21092;-40
2021/12/15 11:34:01;;;;;;;3.87;2.80;;;;;;;1.56;69.10;100273.41;1686593;84;21009;-40
2021/12/15 11:36:44;;;;;;;5.47;3.55;;;;;;;1.58;69.27;100278.75;1701455;84;21061;-40
2021/12/15 11:39:19;;;;;;;4.78;3.27;;;;;;;1.60;69.07;100283.27;1687741;84;21085;-40
2021/12/15 11:41:49;;;;;;;5.33;3.95;;;;;;;1.59;69.29;100278.22;1701801;84;21013;-40
2021/12/15 11:44:24;;;;;;;4.92;3.50;;;;;;;1.64;69.18;100278.19;1701531;83;20992;-40
2021/12/15 11:47:02;;;;;;;4.47;3.60;;;;;;;1.57;69.06;100278.48;1712263;83;21046;-40
2021/12/15 11:49:35;;;;;;;5.37;3.83;;;;;;;1.50;69.39;100277.98;1702168;83;21057;-40
2021/12/15 11:52:11;;;;;;;5.45;3.90;;;;;;;1.57;69.64;100277.69;1683840;85;21145;-40
2021/12/15 11:54:48;;;;;;;5.75;4.33;;;;;;;1.57;69.60;100277.69;1684196;83;21507;-41
2021/12/15 11:57:22;;;;;;;4.80;4.20;;;;;;;1.54;69.74;100278.25;1684811;83;21005;-40
2021/12/15 11:59:59;;;;;;;5.67;4.30;;;;;;;1.53;69.83;100277.45;1682629;85;21044;-40
2021/12/15 12:02:35;;;;;;;5.75;4.55;;;;;;;1.53;69.98;100279.32;1704120;83;21606;-40
2021/12/15 12:05:10;;;;;;;5.72;3.95;;;;;;;1.56;70.03;100281.42;1710589;83;21169;-40
2021/12/15 12:07:42;;;;;;;3.52;3.20;;;;;;;1.62;70.00;100277.66;1706911;83;20950;-40
2021/12/15 12:10:25;;;;;;;3.92;3.47;;;;;;;1.70;69.92;100277.05;1686333;83;20966;-40
2021/12/15 12:13:03;;;;;;;5.25;3.70;;;;;;;1.73;69.70;100277.85;1704563;83;21274;-40
2021/12/15 12:15:27;;;;;;;5.53;3.80;;;;;;;1.72;69.81;100282.93;1708588;83;21089;-40
2021/12/15 12:18:00;;;;;;;6.35;3.87;;;;;;;1.72;69.72;100280.26;1705110;83;20969;-40
2021/12/15 12:20:30;;;;;;;4.72;3.60;;;;;;;1.71;69.72;100279.98;1707357;83;21052;-40
2021/12/15 12:22:58;;;;;;;5.17;3.90;;;;;;;1.68;69.91;100280.02;1704939;84;25599;-40
2021/12/15 12:25:33;;;;;;;4.03;3.62;;;;;;;1.69;70.07;100274.14;1703654;83;21080;-40
2021/12/15 12:28:00;;;;;;;4.62;3.40;;;;;;;1.73;70.16;100280.52;1706439;83;21064;-40
2021/12/15 12:30:32;;;;;;;4.50;4.05;;;;;;;1.74;70.06;100280.80;1705346;83;21152;-40
2021/12/15 12:32:59;;;;;;;4.08;3.25;;;;;;;1.75;70.38;100278.35;1704245;83;21041;-40
2021/12/15 12:35:32;;;;;;;4.78;3.33;;;;;;;1.76;70.42;100279.95;1704143;84;21685;-40
2021/12/15 12:38:03;;;;;;;4.30;3.27;;;;;;;1.75;70.43;100277.81;1691909;83;21543;-40
2021/12/15 12:40:34;;;;;;;3.70;3.02;;;;;;;1.76;70.63;100283.97;1692712;82;21093;-40
2021/12/15 12:43:17;;;;;;;4.65;3.00;;;;;;;1.78;70.53;100277.81;1702970;84;21124;-40
2021/12/15 12:46:08;;;;;;;3.77;2.75;;;;;;;1.75;70.62;100283.16;1698934;83;21549;-40
2021/12/15 12:48:44;;;;;;;4.95;3.10;;;;;;;1.74;70.98;100280.80;1681469;83;20974;-40
2021/12/15 12:59:47;;;;;;;6.65;4.00;;;;;;;1.92;71.11;100274.77;1703936;83;21059;-40
2021/12/15 13:02:55;;;;;;;6.50;4.45;;;;;;;1.91;70.94;100282.52;1705231;83;21037;-40
2021/12/15 13:05:04;;;;;;;6.25;4.03;;;;;;;1.94;71.05;100278.47;1702387;83;21013;-40